sensor_id;sensor_type;location;lat;lon;timestamp;pressure;altitude;pressure_sealevel;temperature;humidity
57232;BME280;43488;46.934;8.276;2022-07-29T00:01:07;96448.84;;;18.36;95.44
57232;BME280;43488;46.934;8.276;2022-07-29T00:03:34;96453.13;;;18.37;95.71
57232;BME280;43488;46.934;8.276;2022-07-29T00:06:01;96453.38;;;18.36;95.95
57232;BME280;43488;46.934;8.276;2022-07-29T00:08:29;96452.78;;;18.24;96.92
57232;BME280;43488;46.934;8.276;2022-07-29T00:10:56;96448.50;;;18.23;97.15
57232;BME280;43488;46.934;8.276;2022-07-29T00:13:23;96446.66;;;18.23;96.98
57232;BME280;43488;46.934;8.276;2022-07-29T00:15:51;96449.56;;;18.22;97.28
57232;BME280;43488;46.934;8.276;2022-07-29T00:18:18;96452.56;;;18.30;96.94
57232;BME280;43488;46.934;8.276;2022-07-29T00:20:45;96445.66;;;18.34;96.70
57232;BME280;43488;46.934;8.276;2022-07-29T00:23:12;96447.50;;;18.34;96.25
57232;BME280;43488;46.934;8.276;2022-07-29T00:25:40;96460.56;;;18.35;96.54
57232;BME280;43488;46.934;8.276;2022-07-29T00:28:07;96450.97;;;18.34;95.53
57232;BME280;43488;46.934;8.276;2022-07-29T00:30:34;96456.28;;;18.29;94.96
57232;BME280;43488;46.934;8.276;2022-07-29T00:33:02;96448.78;;;18.26;95.01
57232;BME280;43488;46.934;8.276;2022-07-29T00:35:29;96448.03;;;18.31;94.57
57232;BME280;43488;46.934;8.276;2022-07-29T00:38:17;96449.91;;;18.30;94.10
57232;BME280;43488;46.934;8.276;2022-07-29T00:40:46;96448.56;;;18.33;93.93
57232;BME280;43488;46.934;8.276;2022-07-29T00:43:15;96445.91;;;18.33;93.33
57232;BME280;43488;46.934;8.276;2022-07-29T00:45:43;96446.44;;;18.30;93.29
57232;BME280;43488;46.934;8.276;2022-07-29T00:48:11;96436.00;;;18.23;93.30
57232;BME280;43488;46.934;8.276;2022-07-29T00:50:38;96428.53;;;18.20;93.55
57232;BME280;43488;46.934;8.276;2022-07-29T00:53:07;96435.94;;;18.18;93.77
57232;BME280;43488;46.934;8.276;2022-07-29T00:55:35;96430.88;;;18.11;94.67
57232;BME280;43488;46.934;8.276;2022-07-29T00:58:03;96423.09;;;18.05;95.03
57232;BME280;43488;46.934;8.276;2022-07-29T01:00:31;96421.22;;;18.05;95.79
57232;BME280;43488;46.934;8.276;2022-07-29T01:02:59;96414.88;;;18.11;95.80
57232;BME280;43488;46.934;8.276;2022-07-29T01:05:28;96413.22;;;18.05;95.22
57232;BME280;43488;46.934;8.276;2022-07-29T01:07:57;96414.31;;;18.09;94.89
57232;BME280;43488;46.934;8.276;2022-07-29T01:10:26;96411.09;;;18.07;94.78
57232;BME280;43488;46.934;8.276;2022-07-29T01:12:58;96418.03;;;18.08;94.86
57232;BME280;43488;46.934;8.276;2022-07-29T01:15:26;96403.13;;;18.07;94.77
57232;BME280;43488;46.934;8.276;2022-07-29T01:18:07;96409.19;;;17.98;94.65
57232;BME280;43488;46.934;8.276;2022-07-29T01:29:39;96395.53;;;17.84;95.25
57232;BME280;43488;46.934;8.276;2022-07-29T01:32:20;96400.31;;;17.87;95.24
57232;BME280;43488;46.934;8.276;2022-07-29T01:35:17;96401.94;;;17.88;95.07
57232;BME280;43488;46.934;8.276;2022-07-29T01:38:12;96388.81;;;17.81;94.82
57232;BME280;43488;46.934;8.276;2022-07-29T01:40:56;96391.19;;;17.78;94.60
57232;BME280;43488;46.934;8.276;2022-07-29T01:43:46;96388.53;;;17.78;93.95
57232;BME280;43488;46.934;8.276;2022-07-29T01:46:25;96389.34;;;17.78;93.92
57232;BME280;43488;46.934;8.276;2022-07-29T01:49:22;96394.66;;;17.78;93.58
57232;BME280;43488;46.934;8.276;2022-07-29T01:52:08;96390.69;;;17.81;92.39
57232;BME280;43488;46.934;8.276;2022-07-29T01:55:09;96389.59;;;17.77;93.44
57232;BME280;43488;46.934;8.276;2022-07-29T01:57:40;96393.81;;;17.73;93.23
57232;BME280;43488;46.934;8.276;2022-07-29T02:00:13;96386.78;;;17.61;94.37
57232;BME280;43488;46.934;8.276;2022-07-29T02:02:44;96394.22;;;17.59;94.62
57232;BME280;43488;46.934;8.276;2022-07-29T02:05:16;96394.22;;;17.59;95.12
57232;BME280;43488;46.934;8.276;2022-07-29T02:07:44;96394.97;;;17.55;95.19
57232;BME280;43488;46.934;8.276;2022-07-29T02:10:13;96392.09;;;17.61;94.48
57232;BME280;43488;46.934;8.276;2022-07-29T02:12:43;96388.09;;;17.59;94.40
57232;BME280;43488;46.934;8.276;2022-07-29T02:15:13;96393.38;;;17.54;94.38
57232;BME280;43488;46.934;8.276;2022-07-29T02:17:48;96395.50;;;17.52;94.72
57232;BME280;43488;46.934;8.276;2022-07-29T02:20:17;96394.69;;;17.51;94.24
57232;BME280;43488;46.934;8.276;2022-07-29T02:22:45;96393.38;;;17.54;94.20
57232;BME280;43488;46.934;8.276;2022-07-29T02:25:14;96397.09;;;17.53;93.66
57232;BME280;43488;46.934;8.276;2022-07-29T02:27:42;96395.75;;;17.50;93.18
57232;BME280;43488;46.934;8.276;2022-07-29T02:30:12;96392.81;;;17.47;93.14
57232;BME280;43488;46.934;8.276;2022-07-29T02:32:41;96394.06;;;17.39;93.57
57232;BME280;43488;46.934;8.276;2022-07-29T02:35:14;96383.91;;;17.36;93.28
57232;BME280;43488;46.934;8.276;2022-07-29T02:37:44;96379.03;;;17.28;93.88
57232;BME280;43488;46.934;8.276;2022-07-29T02:40:13;96378.00;;;17.29;94.53
57232;BME280;43488;46.934;8.276;2022-07-29T02:42:44;96386.81;;;17.34;94.67
57232;BME280;43488;46.934;8.276;2022-07-29T02:45:13;96383.91;;;17.36;94.81
57232;BME280;43488;46.934;8.276;2022-07-29T02:47:43;96374.25;;;17.25;95.18
57232;BME280;43488;46.934;8.276;2022-07-29T02:50:32;96368.38;;;17.23;95.44
57232;BME280;43488;46.934;8.276;2022-07-29T02:53:15;96381.13;;;17.21;95.29
57232;BME280;43488;46.934;8.276;2022-07-29T02:55:55;96381.13;;;17.21;94.27
57232;BME280;43488;46.934;8.276;2022-07-29T02:58:45;96390.16;;;17.20;93.75
57232;BME280;43488;46.934;8.276;2022-07-29T03:01:22;96394.44;;;17.21;94.11
57232;BME280;43488;46.934;8.276;2022-07-29T03:03:53;96398.16;;;17.20;94.51
57232;BME280;43488;46.934;8.276;2022-07-29T03:06:25;96404.00;;;17.22;94.54
57232;BME280;43488;46.934;8.276;2022-07-29T03:08:54;96396.28;;;17.20;94.50
57232;BME280;43488;46.934;8.276;2022-07-29T03:11:22;96399.78;;;17.26;94.16
57232;BME280;43488;46.934;8.276;2022-07-29T03:13:50;96399.78;;;17.26;94.29
57232;BME280;43488;46.934;8.276;2022-07-29T03:16:19;96400.84;;;17.25;94.76
57232;BME280;43488;46.934;8.276;2022-07-29T03:18:47;96409.59;;;17.20;96.29
57232;BME280;43488;46.934;8.276;2022-07-29T03:21:15;96410.31;;;17.16;96.44
57232;BME280;43488;46.934;8.276;2022-07-29T03:23:45;96408.66;;;17.10;96.98
57232;BME280;43488;46.934;8.276;2022-07-29T03:26:13;96408.47;;;17.16;96.07
57232;BME280;43488;46.934;8.276;2022-07-29T03:28:40;96407.41;;;17.17;96.19
57232;BME280;43488;46.934;8.276;2022-07-29T03:31:08;96415.44;;;17.22;96.17
57232;BME280;43488;46.934;8.276;2022-07-29T03:33:36;96413.41;;;17.29;96.21
57232;BME280;43488;46.934;8.276;2022-07-29T03:36:03;96417.94;;;17.34;96.09
57232;BME280;43488;46.934;8.276;2022-07-29T03:38:34;96418.22;;;17.32;97.18
57232;BME280;43488;46.934;8.276;2022-07-29T03:41:09;96414.03;;;17.42;96.84
57232;BME280;43488;46.934;8.276;2022-07-29T03:43:38;96416.69;;;17.42;94.99
57232;BME280;43488;46.934;8.276;2022-07-29T03:46:10;96427.59;;;17.40;95.14
57232;BME280;43488;46.934;8.276;2022-07-29T03:48:42;96417.25;;;17.44;95.36
57232;BME280;43488;46.934;8.276;2022-07-29T03:51:13;96417.78;;;17.46;94.97
57232;BME280;43488;46.934;8.276;2022-07-29T03:53:41;96418.59;;;17.46;94.00
57232;BME280;43488;46.934;8.276;2022-07-29T03:56:10;96423.69;;;17.48;94.42
57232;BME280;43488;46.934;8.276;2022-07-29T03:58:41;96431.59;;;17.43;94.75
57232;BME280;43488;46.934;8.276;2022-07-29T04:01:09;96435.31;;;17.42;95.15
57232;BME280;43488;46.934;8.276;2022-07-29T04:03:39;96437.22;;;17.46;95.19
57232;BME280;43488;46.934;8.276;2022-07-29T04:06:06;96437.78;;;17.48;95.13
57232;BME280;43488;46.934;8.276;2022-07-29T04:08:34;96441.78;;;17.51;95.36
57232;BME280;43488;46.934;8.276;2022-07-29T04:11:03;96433.53;;;17.47;94.93
57232;BME280;43488;46.934;8.276;2022-07-29T04:13:33;96432.66;;;17.42;96.08
57232;BME280;43488;46.934;8.276;2022-07-29T04:16:00;96433.81;;;17.51;95.42
57232;BME280;43488;46.934;8.276;2022-07-29T04:18:28;96439.94;;;17.51;95.67
57232;BME280;43488;46.934;8.276;2022-07-29T04:20:56;96437.22;;;17.46;95.67
57232;BME280;43488;46.934;8.276;2022-07-29T04:23:23;96436.41;;;17.46;95.67
57232;BME280;43488;46.934;8.276;2022-07-29T04:25:51;96434.63;;;17.51;95.31
57232;BME280;43488;46.934;8.276;2022-07-29T04:28:20;96440.22;;;17.55;94.99
57232;BME280;43488;46.934;8.276;2022-07-29T04:30:48;96440.78;;;17.57;95.21
57232;BME280;43488;46.934;8.276;2022-07-29T04:33:16;96436.53;;;17.56;94.62
57232;BME280;43488;46.934;8.276;2022-07-29T04:35:44;96445.31;;;17.56;94.47
57232;BME280;43488;46.934;8.276;2022-07-29T04:38:11;96436.22;;;17.52;94.56
57232;BME280;43488;46.934;8.276;2022-07-29T04:40:38;96438.84;;;17.47;94.71
57232;BME280;43488;46.934;8.276;2022-07-29T04:43:06;96437.78;;;17.48;94.91
57232;BME280;43488;46.934;8.276;2022-07-29T04:45:33;96428.69;;;17.44;94.06
57232;BME280;43488;46.934;8.276;2022-07-29T04:48:01;96426.00;;;17.39;92.74
57232;BME280;43488;46.934;8.276;2022-07-29T04:50:28;96423.06;;;17.41;92.11
57232;BME280;43488;46.934;8.276;2022-07-29T04:52:55;96422.56;;;17.44;91.59
57232;BME280;43488;46.934;8.276;2022-07-29T04:55:22;96417.78;;;17.46;92.83
57232;BME280;43488;46.934;8.276;2022-07-29T04:57:50;96424.47;;;17.48;93.71
57232;BME280;43488;46.934;8.276;2022-07-29T05:00:17;96419.16;;;17.48;93.36
57232;BME280;43488;46.934;8.276;2022-07-29T05:02:45;96415.72;;;17.53;93.08
57232;BME280;43488;46.934;8.276;2022-07-29T05:05:12;96417.31;;;17.54;92.97
57232;BME280;43488;46.934;8.276;2022-07-29T05:07:40;96408.81;;;17.52;93.28
57232;BME280;43488;46.934;8.276;2022-07-29T05:10:08;96400.31;;;17.55;92.51
57232;BME280;43488;46.934;8.276;2022-07-29T05:12:36;96403.47;;;17.52;93.25
57232;BME280;43488;46.934;8.276;2022-07-29T05:15:03;96397.88;;;17.48;91.92
57232;BME280;43488;46.934;8.276;2022-07-29T05:17:31;96411.47;;;17.52;91.53
57232;BME280;43488;46.934;8.276;2022-07-29T05:19:58;96412.25;;;17.52;91.75
57232;BME280;43488;46.934;8.276;2022-07-29T05:22:25;96419.72;;;17.55;90.97
57232;BME280;43488;46.934;8.276;2022-07-29T05:24:52;96412.09;;;17.64;90.57
57232;BME280;43488;46.934;8.276;2022-07-29T05:27:20;96409.75;;;17.68;91.28
57232;BME280;43488;46.934;8.276;2022-07-29T05:29:47;96416.66;;;17.69;91.35
57232;BME280;43488;46.934;8.276;2022-07-29T05:32:15;96422.34;;;17.77;92.17
57232;BME280;43488;46.934;8.276;2022-07-29T05:34:42;96415.19;;;17.83;92.93
57232;BME280;43488;46.934;8.276;2022-07-29T05:37:09;96410.97;;;17.87;93.64
57232;BME280;43488;46.934;8.276;2022-07-29T05:39:37;96408.84;;;17.89;93.72
57232;BME280;43488;46.934;8.276;2022-07-29T05:42:09;96412.38;;;18.00;93.06
57232;BME280;43488;46.934;8.276;2022-07-29T05:44:39;96408.97;;;18.04;92.34
57232;BME280;43488;46.934;8.276;2022-07-29T05:47:07;96419.09;;;18.07;92.85
57232;BME280;43488;46.934;8.276;2022-07-29T05:49:34;96426.81;;;18.09;93.53
57232;BME280;43488;46.934;8.276;2022-07-29T05:52:01;96425.00;;;18.14;94.18
57232;BME280;43488;46.934;8.276;2022-07-29T05:54:29;96427.69;;;18.19;95.61
57232;BME280;43488;46.934;8.276;2022-07-29T05:56:57;96428.00;;;18.23;96.34
57232;BME280;43488;46.934;8.276;2022-07-29T05:59:24;96413.88;;;18.28;97.24
57232;BME280;43488;46.934;8.276;2022-07-29T06:01:51;96420.31;;;18.32;96.75
57232;BME280;43488;46.934;8.276;2022-07-29T06:04:19;96428.31;;;18.37;95.98
57232;BME280;43488;46.934;8.276;2022-07-29T06:06:48;96422.50;;;18.45;95.16
57232;BME280;43488;46.934;8.276;2022-07-29T06:09:15;96429.47;;;18.51;94.99
57232;BME280;43488;46.934;8.276;2022-07-29T06:11:44;96431.34;;;18.56;94.88
57232;BME280;43488;46.934;8.276;2022-07-29T06:14:11;96441.00;;;18.62;94.77
57232;BME280;43488;46.934;8.276;2022-07-29T06:16:39;96442.13;;;18.66;93.79
57232;BME280;43488;46.934;8.276;2022-07-29T06:19:06;96440.25;;;18.71;94.07
57232;BME280;43488;46.934;8.276;2022-07-29T06:21:34;96443.22;;;18.75;94.67
57232;BME280;43488;46.934;8.276;2022-07-29T06:24:02;96460.56;;;18.78;94.26
57232;BME280;43488;46.934;8.276;2022-07-29T06:26:29;96470.16;;;18.79;94.57
57232;BME280;43488;46.934;8.276;2022-07-29T06:28:57;96474.16;;;18.81;94.60
57232;BME280;43488;46.934;8.276;2022-07-29T06:31:25;96480.59;;;18.90;95.31
57232;BME280;43488;46.934;8.276;2022-07-29T06:33:53;96480.91;;;18.99;95.72
57232;BME280;43488;46.934;8.276;2022-07-29T06:36:20;96499.81;;;18.87;96.06
57232;BME280;43488;46.934;8.276;2022-07-29T06:38:48;96500.13;;;19.01;94.72
57232;BME280;43488;46.934;8.276;2022-07-29T06:41:15;96494.84;;;19.11;94.99
57232;BME280;43488;46.934;8.276;2022-07-29T06:43:44;96494.06;;;19.16;95.19
57232;BME280;43488;46.934;8.276;2022-07-29T06:46:15;96493.28;;;19.25;93.11
57232;BME280;43488;46.934;8.276;2022-07-29T06:48:44;96491.19;;;19.32;93.65
57232;BME280;43488;46.934;8.276;2022-07-29T06:51:11;96499.22;;;19.43;92.48
57232;BME280;43488;46.934;8.276;2022-07-29T06:53:40;96499.22;;;19.53;91.23
57232;BME280;43488;46.934;8.276;2022-07-29T06:56:08;96501.44;;;19.66;89.76
57232;BME280;43488;46.934;8.276;2022-07-29T06:58:36;96509.47;;;19.76;91.33
57232;BME280;43488;46.934;8.276;2022-07-29T07:01:05;96496.63;;;19.78;89.69
57232;BME280;43488;46.934;8.276;2022-07-29T07:03:33;96500.09;;;19.79;90.07
57232;BME280;43488;46.934;8.276;2022-07-29T07:06:01;96499.31;;;19.88;89.36
57232;BME280;43488;46.934;8.276;2022-07-29T07:08:30;96489.69;;;19.93;86.64
57232;BME280;43488;46.934;8.276;2022-07-29T07:10:57;96494.22;;;20.02;84.90
57232;BME280;43488;46.934;8.276;2022-07-29T07:13:25;96492.63;;;20.11;84.90
57232;BME280;43488;46.934;8.276;2022-07-29T07:15:52;96495.03;;;20.23;85.74
57232;BME280;43488;46.934;8.276;2022-07-29T07:18:19;96490.75;;;20.32;84.46
57232;BME280;43488;46.934;8.276;2022-07-29T07:20:47;96491.28;;;20.34;83.26
57232;BME280;43488;46.934;8.276;2022-07-29T07:23:15;96490.75;;;20.32;83.49
57232;BME280;43488;46.934;8.276;2022-07-29T07:25:42;96491.56;;;20.43;85.56
57232;BME280;43488;46.934;8.276;2022-07-29T07:28:09;96493.69;;;20.51;87.37
57232;BME280;43488;46.934;8.276;2022-07-29T07:30:36;96490.22;;;20.51;84.97
57232;BME280;43488;46.934;8.276;2022-07-29T07:33:04;96494.22;;;20.53;84.75
57232;BME280;43488;46.934;8.276;2022-07-29T07:35:31;96494.75;;;20.55;86.33
57232;BME280;43488;46.934;8.276;2022-07-29T07:37:59;96495.25;;;20.57;86.45
57232;BME280;43488;46.934;8.276;2022-07-29T07:40:27;96490.19;;;20.61;85.49
57232;BME280;43488;46.934;8.276;2022-07-29T07:42:54;96479.47;;;20.66;85.25
57232;BME280;43488;46.934;8.276;2022-07-29T07:45:22;96485.34;;;20.73;85.05
57232;BME280;43488;46.934;8.276;2022-07-29T07:47:49;96496.56;;;20.80;86.81
57232;BME280;43488;46.934;8.276;2022-07-29T07:50:16;96493.31;;;20.83;86.40
57232;BME280;43488;46.934;8.276;2022-07-29T07:52:52;96485.28;;;20.88;84.75
57232;BME280;43488;46.934;8.276;2022-07-29T07:55:20;96487.41;;;20.91;85.95
57232;BME280;43488;46.934;8.276;2022-07-29T07:57:47;96476.97;;;20.95;86.19
57232;BME280;43488;46.934;8.276;2022-07-29T08:00:16;96484.19;;;20.99;84.53
57232;BME280;43488;46.934;8.276;2022-07-29T08:02:44;96489.25;;;21.01;83.38
57232;BME280;43488;46.934;8.276;2022-07-29T08:05:13;96485.25;;;20.98;82.63
57232;BME280;43488;46.934;8.276;2022-07-29T08:07:45;96496.25;;;20.97;81.77
57232;BME280;43488;46.934;8.276;2022-07-29T08:10:16;96499.94;;;21.01;80.86
57232;BME280;43488;46.934;8.276;2022-07-29T08:13:08;96505.84;;;21.03;79.83
57232;BME280;43488;46.934;8.276;2022-07-29T08:15:35;96503.94;;;21.09;78.41
57232;BME280;43488;46.934;8.276;2022-07-29T08:18:03;96515.41;;;21.19;79.57
57232;BME280;43488;46.934;8.276;2022-07-29T08:20:30;96520.22;;;21.33;80.12
57232;BME280;43488;46.934;8.276;2022-07-29T08:23:00;96515.03;;;21.46;79.33
57232;BME280;43488;46.934;8.276;2022-07-29T08:25:28;96519.59;;;21.51;75.19
57232;BME280;43488;46.934;8.276;2022-07-29T08:27:55;96514.38;;;21.70;74.84
57232;BME280;43488;46.934;8.276;2022-07-29T08:30:22;96513.00;;;21.77;75.26
57232;BME280;43488;46.934;8.276;2022-07-29T08:32:50;96513.22;;;21.81;74.51
57232;BME280;43488;46.934;8.276;2022-07-29T08:35:22;96512.91;;;21.88;74.03
57232;BME280;43488;46.934;8.276;2022-07-29T08:37:50;96510.53;;;21.86;71.69
57232;BME280;43488;46.934;8.276;2022-07-29T08:40:19;96511.28;;;21.92;70.80
57232;BME280;43488;46.934;8.276;2022-07-29T08:42:47;96522.19;;;22.00;72.75
57232;BME280;43488;46.934;8.276;2022-07-29T08:45:15;96516.03;;;22.00;69.11
57232;BME280;43488;46.934;8.276;2022-07-29T08:47:45;96517.34;;;22.07;68.99
57232;BME280;43488;46.934;8.276;2022-07-29T08:50:13;96511.13;;;22.17;68.57
57232;BME280;43488;46.934;8.276;2022-07-29T08:52:41;96511.63;;;22.19;69.46
57232;BME280;43488;46.934;8.276;2022-07-29T08:55:09;96513.41;;;22.29;68.51
57232;BME280;43488;46.934;8.276;2022-07-29T08:57:39;96516.53;;;22.41;69.88
57232;BME280;43488;46.934;8.276;2022-07-29T09:00:08;96516.47;;;22.46;71.52
57232;BME280;43488;46.934;8.276;2022-07-29T09:02:42;96518.63;;;22.73;70.49
57232;BME280;43488;46.934;8.276;2022-07-29T09:05:14;96517.31;;;22.70;70.17
57232;BME280;43488;46.934;8.276;2022-07-29T09:07:42;96513.84;;;22.70;69.14
57232;BME280;43488;46.934;8.276;2022-07-29T09:10:11;96503.94;;;22.65;68.97
57232;BME280;43488;46.934;8.276;2022-07-29T09:12:39;96507.69;;;22.69;67.91
57232;BME280;43488;46.934;8.276;2022-07-29T09:15:07;96496.94;;;22.69;67.03
57232;BME280;43488;46.934;8.276;2022-07-29T09:17:46;96497.97;;;22.74;66.27
57232;BME280;43488;46.934;8.276;2022-07-29T09:20:18;96505.69;;;22.80;66.63
57232;BME280;43488;46.934;8.276;2022-07-29T09:22:46;96489.00;;;22.83;66.82
57232;BME280;43488;46.934;8.276;2022-07-29T09:25:38;96495.66;;;22.91;66.75
57232;BME280;43488;46.934;8.276;2022-07-29T09:28:13;96491.28;;;22.71;66.36
57232;BME280;43488;46.934;8.276;2022-07-29T09:30:53;96494.06;;;22.90;71.17
57232;BME280;43488;46.934;8.276;2022-07-29T09:33:22;96488.44;;;23.10;71.15
57232;BME280;43488;46.934;8.276;2022-07-29T09:36:08;96486.97;;;23.42;68.55
57232;BME280;43488;46.934;8.276;2022-07-29T09:38:36;96481.94;;;23.59;67.19
57232;BME280;43488;46.934;8.276;2022-07-29T09:41:05;96479.00;;;23.74;64.68
57232;BME280;43488;46.934;8.276;2022-07-29T09:43:33;96476.56;;;23.78;64.13
57232;BME280;43488;46.934;8.276;2022-07-29T09:46:13;96479.09;;;23.69;65.20
57232;BME280;43488;46.934;8.276;2022-07-29T09:48:41;96471.81;;;23.51;65.63
57232;BME280;43488;46.934;8.276;2022-07-29T09:51:19;96471.88;;;23.83;64.75
57232;BME280;43488;46.934;8.276;2022-07-29T09:53:46;96473.19;;;23.86;64.30
57232;BME280;43488;46.934;8.276;2022-07-29T09:56:13;96465.91;;;24.05;62.12
57232;BME280;43488;46.934;8.276;2022-07-29T09:58:41;96472.28;;;24.09;60.22
57232;BME280;43488;46.934;8.276;2022-07-29T10:01:08;96467.69;;;24.10;58.80
57232;BME280;43488;46.934;8.276;2022-07-29T10:03:52;96473.97;;;24.05;60.64
57232;BME280;43488;46.934;8.276;2022-07-29T10:06:20;96472.91;;;23.88;61.96
57232;BME280;43488;46.934;8.276;2022-07-29T10:08:47;96473.31;;;23.95;60.97
57232;BME280;43488;46.934;8.276;2022-07-29T10:11:17;96478.84;;;23.84;61.34
57232;BME280;43488;46.934;8.276;2022-07-29T10:13:47;96470.88;;;23.79;60.72
57232;BME280;43488;46.934;8.276;2022-07-29T10:16:15;96468.25;;;23.74;60.61
57232;BME280;43488;46.934;8.276;2022-07-29T10:18:44;96474.28;;;23.85;61.25
57232;BME280;43488;46.934;8.276;2022-07-29T10:21:12;96474.19;;;23.90;61.01
57232;BME280;43488;46.934;8.276;2022-07-29T10:23:41;96477.84;;;23.80;63.00
57232;BME280;43488;46.934;8.276;2022-07-29T10:26:10;96480.59;;;23.75;63.39
57232;BME280;43488;46.934;8.276;2022-07-29T10:28:38;96480.47;;;23.67;62.77
57232;BME280;43488;46.934;8.276;2022-07-29T10:31:06;96470.72;;;23.52;62.15
57232;BME280;43488;46.934;8.276;2022-07-29T10:34:17;96471.66;;;23.42;62.60
57232;BME280;43488;46.934;8.276;2022-07-29T10:37:08;96476.72;;;23.25;63.44
57232;BME280;43488;46.934;8.276;2022-07-29T10:43:29;96488.25;;;23.25;66.38
57232;BME280;43488;46.934;8.276;2022-07-29T10:45:59;96493.41;;;23.22;68.02
57232;BME280;43488;46.934;8.276;2022-07-29T10:48:26;96490.28;;;23.15;66.97
57232;BME280;43488;46.934;8.276;2022-07-29T10:51:02;96479.25;;;23.16;70.53
57232;BME280;43488;46.934;8.276;2022-07-29T10:53:51;96490.00;;;23.16;71.79
57232;BME280;43488;46.934;8.276;2022-07-29T10:56:32;96482.44;;;23.18;74.36
57232;BME280;43488;46.934;8.276;2022-07-29T11:01:51;96490.16;;;23.25;74.50
57232;BME280;43488;46.934;8.276;2022-07-29T11:07:11;96484.50;;;23.26;71.40
57232;BME280;43488;46.934;8.276;2022-07-29T11:09:39;96483.34;;;23.33;71.02
57232;BME280;43488;46.934;8.276;2022-07-29T11:15:12;96480.72;;;23.27;72.38
57232;BME280;43488;46.934;8.276;2022-07-29T11:23:34;96487.34;;;23.11;66.78
57232;BME280;43488;46.934;8.276;2022-07-29T11:26:13;96486.06;;;23.09;66.23
57232;BME280;43488;46.934;8.276;2022-07-29T11:29:18;96488.53;;;23.05;68.77
57232;BME280;43488;46.934;8.276;2022-07-29T11:31:50;96485.44;;;22.93;71.07
57232;BME280;43488;46.934;8.276;2022-07-29T11:34:32;96496.75;;;22.90;71.24
57232;BME280;43488;46.934;8.276;2022-07-29T11:39:40;96506.03;;;22.74;71.68
57232;BME280;43488;46.934;8.276;2022-07-29T11:47:38;96525.84;;;22.49;71.00
57232;BME280;43488;46.934;8.276;2022-07-29T11:50:13;96532.06;;;22.44;74.44
57232;BME280;43488;46.934;8.276;2022-07-29T11:52:47;96539.34;;;22.38;79.50
57232;BME280;43488;46.934;8.276;2022-07-29T11:55:20;96548.75;;;22.36;81.40
57232;BME280;43488;46.934;8.276;2022-07-29T11:57:59;96551.53;;;22.26;85.82
57232;BME280;43488;46.934;8.276;2022-07-29T12:00:38;96552.69;;;22.14;87.99
57232;BME280;43488;46.934;8.276;2022-07-29T12:03:11;96557.31;;;21.99;89.45
57232;BME280;43488;46.934;8.276;2022-07-29T12:05:44;96563.84;;;21.82;87.46
57232;BME280;43488;46.934;8.276;2022-07-29T12:08:18;96590.19;;;21.65;86.55
57232;BME280;43488;46.934;8.276;2022-07-29T12:10:48;96598.06;;;21.46;83.39
57232;BME280;43488;46.934;8.276;2022-07-29T12:13:19;96600.25;;;21.29;81.28
57232;BME280;43488;46.934;8.276;2022-07-29T12:15:54;96608.06;;;21.15;85.23
57232;BME280;43488;46.934;8.276;2022-07-29T12:18:23;96606.44;;;21.14;86.68
57232;BME280;43488;46.934;8.276;2022-07-29T12:20:58;96611.53;;;21.11;86.96
57232;BME280;43488;46.934;8.276;2022-07-29T12:23:26;96609.41;;;21.13;89.13
57232;BME280;43488;46.934;8.276;2022-07-29T12:25:53;96611.81;;;21.09;90.61
57232;BME280;43488;46.934;8.276;2022-07-29T12:28:21;96617.72;;;21.06;88.43
57232;BME280;43488;46.934;8.276;2022-07-29T12:30:50;96608.88;;;21.00;88.21
57232;BME280;43488;46.934;8.276;2022-07-29T12:33:25;96616.38;;;20.93;88.19
57232;BME280;43488;46.934;8.276;2022-07-29T12:35:57;96604.09;;;20.87;88.36
57232;BME280;43488;46.934;8.276;2022-07-29T12:38:25;96602.47;;;20.91;88.74
57232;BME280;43488;46.934;8.276;2022-07-29T12:40:53;96596.59;;;20.84;88.40
57232;BME280;43488;46.934;8.276;2022-07-29T12:43:23;96590.72;;;20.87;88.38
57232;BME280;43488;46.934;8.276;2022-07-29T12:45:53;96598.47;;;20.84;86.53
57232;BME280;43488;46.934;8.276;2022-07-29T12:48:40;96596.88;;;20.88;85.83
57232;BME280;43488;46.934;8.276;2022-07-29T12:51:08;96597.41;;;20.90;88.21
57232;BME280;43488;46.934;8.276;2022-07-29T12:53:37;96599.53;;;20.93;87.85
57232;BME280;43488;46.934;8.276;2022-07-29T12:56:05;96593.66;;;20.96;87.44
57232;BME280;43488;46.934;8.276;2022-07-29T12:58:41;96590.94;;;21.01;86.65
57232;BME280;43488;46.934;8.276;2022-07-29T13:01:18;96587.44;;;21.11;89.71
57232;BME280;43488;46.934;8.276;2022-07-29T13:03:54;96592.50;;;21.17;90.70
57232;BME280;43488;46.934;8.276;2022-07-29T13:09:10;96595.47;;;21.31;90.62
57232;BME280;43488;46.934;8.276;2022-07-29T13:11:44;96596.50;;;21.25;90.14
57232;BME280;43488;46.934;8.276;2022-07-29T13:14:20;96600.53;;;21.27;91.29
57232;BME280;43488;46.934;8.276;2022-07-29T13:22:04;96605.34;;;21.36;89.78
57232;BME280;43488;46.934;8.276;2022-07-29T13:24:32;96596.50;;;21.25;89.25
57232;BME280;43488;46.934;8.276;2022-07-29T13:27:00;96600.53;;;21.27;90.18
57232;BME280;43488;46.934;8.276;2022-07-29T13:29:27;96601.06;;;21.35;92.20
57232;BME280;43488;46.934;8.276;2022-07-29T13:31:55;96604.00;;;21.33;92.30
57232;BME280;43488;46.934;8.276;2022-07-29T13:34:22;96615.25;;;21.20;91.18
57232;BME280;43488;46.934;8.276;2022-07-29T13:36:51;96611.00;;;21.09;90.51
57232;BME280;43488;46.934;8.276;2022-07-29T13:39:18;96616.63;;;21.12;89.34
57232;BME280;43488;46.934;8.276;2022-07-29T13:41:46;96619.56;;;21.16;91.18
57232;BME280;43488;46.934;8.276;2022-07-29T13:44:13;96619.28;;;21.17;91.46
57232;BME280;43488;46.934;8.276;2022-07-29T13:46:41;96619.00;;;21.19;92.92
57232;BME280;43488;46.934;8.276;2022-07-29T13:49:08;96612.56;;;21.20;92.35
57232;BME280;43488;46.934;8.276;2022-07-29T13:51:36;96615.53;;;21.23;90.56
57232;BME280;43488;46.934;8.276;2022-07-29T13:54:04;96620.06;;;21.28;89.10
57232;BME280;43488;46.934;8.276;2022-07-29T13:56:32;96606.69;;;21.28;87.09
57232;BME280;43488;46.934;8.276;2022-07-29T13:58:59;96616.31;;;21.29;87.35
57232;BME280;43488;46.934;8.276;2022-07-29T14:01:27;96609.38;;;21.33;86.33